sensor_id;sensor_type;location;lat;lon;timestamp;pressure;altitude;pressure_sealevel;temperature;humidity
63090;BME280;49174;43.198;27.824;2023-02-13T05:10:35;103807.00;;;-3.47;93.83
63090;BME280;49174;43.198;27.824;2023-02-13T05:13:01;103808.59;;;-3.40;95.03
63090;BME280;49174;43.198;27.824;2023-02-13T05:15:27;103803.28;;;-3.37;94.62
63090;BME280;49174;43.198;27.824;2023-02-13T05:17:53;103816.44;;;-3.35;95.12
63090;BME280;49174;43.198;27.824;2023-02-13T05:20:19;103825.22;;;-3.35;95.04
63090;BME280;49174;43.198;27.824;2023-02-13T05:22:46;103817.44;;;-3.41;94.94
63090;BME280;49174;43.198;27.824;2023-02-13T05:47:55;103831.94;;;-3.19;95.79
63090;BME280;49174;43.198;27.824;2023-02-13T05:50:22;103840.56;;;-3.09;95.32
63090;BME280;49174;43.198;27.824;2023-02-13T05:52:47;103840.41;;;-3.03;95.00
63090;BME280;49174;43.198;27.824;2023-02-13T05:55:14;103831.56;;;-3.00;94.71
63090;BME280;49174;43.198;27.824;2023-02-13T06:16:34;103829.34;;;-2.42;92.72
63090;BME280;49174;43.198;27.824;2023-02-13T06:18:59;103836.25;;;-2.37;91.70
63090;BME280;49174;43.198;27.824;2023-02-13T06:43:00;103833.50;;;-1.95;91.94
63090;BME280;49174;43.198;27.824;2023-02-13T07:16:24;103830.44;;;-0.86;83.21
63090;BME280;49174;43.198;27.824;2023-02-13T07:21:50;103824.41;;;-0.63;84.59
63090;BME280;49174;43.198;27.824;2023-02-13T07:49:20;103806.94;;;0.83;80.44
63090;BME280;49174;43.198;27.824;2023-02-13T08:24:10;103799.03;;;2.33;68.74
63090;BME280;49174;43.198;27.824;2023-02-13T08:35:05;103795.56;;;2.51;68.46
63090;BME280;49174;43.198;27.824;2023-02-13T08:37:32;103792.66;;;2.56;67.06
63090;BME280;49174;43.198;27.824;2023-02-13T11:26:09;103566.31;;;7.61;48.64
63090;BME280;49174;43.198;27.824;2023-02-13T13:37:42;103436.66;;;8.18;47.23
63090;BME280;49174;43.198;27.824;2023-02-13T13:40:38;103431.94;;;8.22;47.83
63090;BME280;49174;43.198;27.824;2023-02-13T13:49:11;103415.84;;;8.09;49.61
63090;BME280;49174;43.198;27.824;2023-02-13T13:51:40;103415.66;;;7.99;47.91
63090;BME280;49174;43.198;27.824;2023-02-13T13:57:07;103401.38;;;7.75;47.42
63090;BME280;49174;43.198;27.824;2023-02-13T15:05:34;103368.75;;;5.48;52.68
63090;BME280;49174;43.198;27.824;2023-02-13T15:08:04;103369.22;;;5.40;52.55
63090;BME280;49174;43.198;27.824;2023-02-13T15:16:10;103370.63;;;5.19;53.67
63090;BME280;49174;43.198;27.824;2023-02-13T15:18:48;103363.06;;;5.11;52.91
63090;BME280;49174;43.198;27.824;2023-02-13T15:54:53;103389.41;;;3.99;55.04
63090;BME280;49174;43.198;27.824;2023-02-13T15:57:19;103390.09;;;3.87;55.97
63090;BME280;49174;43.198;27.824;2023-02-13T15:59:48;103388.16;;;3.75;55.97
63090;BME280;49174;43.198;27.824;2023-02-13T16:02:41;103385.41;;;3.61;56.58
63090;BME280;49174;43.198;27.824;2023-02-13T16:05:11;103391.16;;;3.53;56.92
63090;BME280;49174;43.198;27.824;2023-02-13T16:07:56;103400.91;;;3.38;57.13
63090;BME280;49174;43.198;27.824;2023-02-13T16:10:35;103400.97;;;3.21;57.15
63090;BME280;49174;43.198;27.824;2023-02-13T16:13:04;103405.75;;;2.98;57.37
63090;BME280;49174;43.198;27.824;2023-02-13T16:15:34;103396.84;;;2.82;57.07
63090;BME280;49174;43.198;27.824;2023-02-13T16:18:21;103400.75;;;2.75;57.41
63090;BME280;49174;43.198;27.824;2023-02-13T16:20:53;103398.75;;;2.62;57.72
63090;BME280;49174;43.198;27.824;2023-02-13T16:23:20;103403.19;;;2.44;58.34
63090;BME280;49174;43.198;27.824;2023-02-13T16:25:46;103394.41;;;2.25;58.53
63090;BME280;49174;43.198;27.824;2023-02-13T16:28:25;103389.88;;;2.10;59.07
63090;BME280;49174;43.198;27.824;2023-02-13T16:31:12;103404.75;;;1.77;59.72
63090;BME280;49174;43.198;27.824;2023-02-13T16:33:41;103399.69;;;1.54;59.92
63090;BME280;49174;43.198;27.824;2023-02-13T16:38:40;103392.84;;;1.29;62.20
63090;BME280;49174;43.198;27.824;2023-02-13T16:43:47;103396.63;;;1.05;62.95
63090;BME280;49174;43.198;27.824;2023-02-13T16:51:39;103400.59;;;1.15;63.27
63090;BME280;49174;43.198;27.824;2023-02-13T16:56:55;103401.38;;;0.98;64.20
63090;BME280;49174;43.198;27.824;2023-02-13T17:04:37;103402.47;;;0.74;65.53
63090;BME280;49174;43.198;27.824;2023-02-13T17:07:04;103398.34;;;0.66;65.87
63090;BME280;49174;43.198;27.824;2023-02-13T17:09:35;103389.91;;;0.57;66.58
63090;BME280;49174;43.198;27.824;2023-02-13T17:12:01;103393.91;;;0.47;65.75
63090;BME280;49174;43.198;27.824;2023-02-13T17:14:26;103386.50;;;0.33;65.85
63090;BME280;49174;43.198;27.824;2023-02-13T17:16:52;103385.91;;;0.26;67.65
63090;BME280;49174;43.198;27.824;2023-02-13T17:19:18;103389.84;;;0.38;67.52
63090;BME280;49174;43.198;27.824;2023-02-13T17:21:43;103383.72;;;0.36;67.98
63090;BME280;49174;43.198;27.824;2023-02-13T17:24:15;103378.81;;;0.27;67.71
63090;BME280;49174;43.198;27.824;2023-02-13T17:26:42;103378.94;;;0.24;67.91
63090;BME280;49174;43.198;27.824;2023-02-13T17:29:07;103371.59;;;0.08;68.71
63090;BME280;49174;43.198;27.824;2023-02-13T17:31:33;103380.78;;;0.01;68.74
63090;BME280;49174;43.198;27.824;2023-02-13T17:33:59;103377.81;;;0.09;69.22
63090;BME280;49174;43.198;27.824;2023-02-13T17:36:24;103364.97;;;-0.02;69.19
63090;BME280;49174;43.198;27.824;2023-02-13T17:38:50;103363.22;;;-0.03;69.98
63090;BME280;49174;43.198;27.824;2023-02-13T17:41:16;103363.06;;;0.02;71.21
63090;BME280;49174;43.198;27.824;2023-02-13T17:43:41;103352.63;;;-0.03;71.12
63090;BME280;49174;43.198;27.824;2023-02-13T17:46:07;103363.16;;;-0.22;69.54
63090;BME280;49174;43.198;27.824;2023-02-13T17:48:32;103364.03;;;-0.45;69.81
63090;BME280;49174;43.198;27.824;2023-02-13T17:50:58;103362.28;;;-0.44;70.55
63090;BME280;49174;43.198;27.824;2023-02-13T17:53:26;103355.06;;;-0.41;71.43
63090;BME280;49174;43.198;27.824;2023-02-13T17:55:54;103353.38;;;-0.43;71.93
63090;BME280;49174;43.198;27.824;2023-02-13T17:58:20;103353.38;;;-0.43;71.68
63090;BME280;49174;43.198;27.824;2023-02-13T18:00:45;103355.97;;;-0.42;70.87
63090;BME280;49174;43.198;27.824;2023-02-13T18:03:11;103350.66;;;-0.42;72.57
63090;BME280;49174;43.198;27.824;2023-02-13T18:05:38;103354.41;;;-0.48;72.71
63090;BME280;49174;43.198;27.824;2023-02-13T18:08:04;103353.84;;;-0.56;72.36
63090;BME280;49174;43.198;27.824;2023-02-13T18:10:32;103354.09;;;-0.62;73.05
63090;BME280;49174;43.198;27.824;2023-02-13T18:12:58;103352.44;;;-0.64;73.65
63090;BME280;49174;43.198;27.824;2023-02-13T18:15:39;103350.66;;;-0.64;74.11
63090;BME280;49174;43.198;27.824;2023-02-13T18:18:05;103352.25;;;-0.60;74.27
63090;BME280;49174;43.198;27.824;2023-02-13T18:20:32;103352.31;;;-0.61;73.82
63090;BME280;49174;43.198;27.824;2023-02-13T18:22:58;103354.78;;;-0.57;73.48
63090;BME280;49174;43.198;27.824;2023-02-13T18:25:24;103346.03;;;-0.59;73.17
63090;BME280;49174;43.198;27.824;2023-02-13T18:27:50;103342.34;;;-0.55;74.43
63090;BME280;49174;43.198;27.824;2023-02-13T18:30:18;103342.59;;;-0.39;74.12
63090;BME280;49174;43.198;27.824;2023-02-13T18:32:44;103340.56;;;-0.32;73.49
63090;BME280;49174;43.198;27.824;2023-02-13T18:35:10;103340.84;;;-0.40;72.74
63090;BME280;49174;43.198;27.824;2023-02-13T18:37:36;103335.75;;;-0.44;72.54
63090;BME280;49174;43.198;27.824;2023-02-13T18:40:08;103336.22;;;-0.57;72.54
63090;BME280;49174;43.198;27.824;2023-02-13T18:42:33;103340.72;;;-0.59;72.93
63090;BME280;49174;43.198;27.824;2023-02-13T18:45:00;103340.06;;;-0.64;72.67
63090;BME280;49174;43.198;27.824;2023-02-13T18:47:26;103327.84;;;-0.68;72.78
63090;BME280;49174;43.198;27.824;2023-02-13T18:49:51;103326.25;;;-0.72;72.42
63090;BME280;49174;43.198;27.824;2023-02-13T18:52:17;103325.47;;;-0.76;72.81
63090;BME280;49174;43.198;27.824;2023-02-13T18:54:42;103329.22;;;-0.81;72.69
63090;BME280;49174;43.198;27.824;2023-02-13T18:57:08;103314.50;;;-0.88;72.92
63090;BME280;49174;43.198;27.824;2023-02-13T18:59:34;103327.19;;;-0.97;73.48
63090;BME280;49174;43.198;27.824;2023-02-13T19:01:59;103337.94;;;-1.01;73.79
63090;BME280;49174;43.198;27.824;2023-02-13T19:04:25;103334.56;;;-1.05;73.93
63090;BME280;49174;43.198;27.824;2023-02-13T19:06:50;103343.03;;;-1.19;74.61
63090;BME280;49174;43.198;27.824;2023-02-13T19:09:16;103337.97;;;-1.25;75.20
63090;BME280;49174;43.198;27.824;2023-02-13T19:11:42;103323.03;;;-1.27;75.16
63090;BME280;49174;43.198;27.824;2023-02-13T19:14:11;103325.69;;;-1.27;75.36
63090;BME280;49174;43.198;27.824;2023-02-13T19:16:37;103334.44;;;-1.25;75.33
63090;BME280;49174;43.198;27.824;2023-02-13T19:19:05;103328.44;;;-1.30;75.74
63090;BME280;49174;43.198;27.824;2023-02-13T19:21:34;103322.09;;;-1.26;75.68
63090;BME280;49174;43.198;27.824;2023-02-13T19:24:01;103325.69;;;-1.27;75.69
63090;BME280;49174;43.198;27.824;2023-02-13T19:26:27;103323.19;;;-1.32;75.66
63090;BME280;49174;43.198;27.824;2023-02-13T19:28:52;103321.59;;;-1.36;76.11
63090;BME280;49174;43.198;27.824;2023-02-13T19:31:26;103313.75;;;-1.39;76.98
63090;BME280;49174;43.198;27.824;2023-02-13T19:33:52;103315.06;;;-1.51;77.51
63090;BME280;49174;43.198;27.824;2023-02-13T19:36:20;103311.72;;;-1.56;77.60
63090;BME280;49174;43.198;27.824;2023-02-13T19:38:46;103310.09;;;-1.60;77.92
63090;BME280;49174;43.198;27.824;2023-02-13T19:41:16;103310.44;;;-1.69;77.56
63090;BME280;49174;43.198;27.824;2023-02-13T19:43:45;103309.84;;;-1.77;77.60
63090;BME280;49174;43.198;27.824;2023-02-13T19:46:17;103306.44;;;-1.81;77.31
63090;BME280;49174;43.198;27.824;2023-02-13T19:48:42;103302.38;;;-1.91;77.74
63090;BME280;49174;43.198;27.824;2023-02-13T19:51:11;103302.63;;;-1.99;77.80
63090;BME280;49174;43.198;27.824;2023-02-13T19:53:37;103300.81;;;-1.97;77.99
63090;BME280;49174;43.198;27.824;2023-02-13T19:56:04;103304.06;;;-1.89;76.70
63090;BME280;49174;43.198;27.824;2023-02-13T19:58:30;103296.38;;;-1.96;76.85
63090;BME280;49174;43.198;27.824;2023-02-13T20:01:15;103288.47;;;-1.98;77.32
63090;BME280;49174;43.198;27.824;2023-02-13T20:03:41;103285.56;;;-1.90;77.17
63090;BME280;49174;43.198;27.824;2023-02-13T20:06:11;103291.72;;;-1.90;77.48
63090;BME280;49174;43.198;27.824;2023-02-13T20:08:37;103288.69;;;-2.04;77.23
63090;BME280;49174;43.198;27.824;2023-02-13T20:11:12;103285.31;;;-2.09;78.54
63090;BME280;49174;43.198;27.824;2023-02-13T20:13:38;103280.72;;;-2.03;79.62
63090;BME280;49174;43.198;27.824;2023-02-13T20:16:09;103277.13;;;-2.02;80.61
63090;BME280;49174;43.198;27.824;2023-02-13T20:18:36;103277.69;;;-1.92;81.89
63090;BME280;49174;43.198;27.824;2023-02-13T20:21:09;103282.88;;;-1.89;81.86
63090;BME280;49174;43.198;27.824;2023-02-13T20:23:35;103278.13;;;-1.79;82.23
63090;BME280;49174;43.198;27.824;2023-02-13T20:26:05;103275.31;;;-1.74;79.10
63090;BME280;49174;43.198;27.824;2023-02-13T20:28:30;103279.91;;;-1.80;79.55
63090;BME280;49174;43.198;27.824;2023-02-13T20:30:56;103282.81;;;-1.87;78.68
63090;BME280;49174;43.198;27.824;2023-02-13T20:33:22;103285.91;;;-1.99;78.75
63090;BME280;49174;43.198;27.824;2023-02-13T20:35:47;103276.44;;;-2.07;79.99
63090;BME280;49174;43.198;27.824;2023-02-13T20:38:15;103268.66;;;-2.11;80.46
63090;BME280;49174;43.198;27.824;2023-02-13T20:40:40;103268.50;;;-2.07;81.28
63090;BME280;49174;43.198;27.824;2023-02-13T20:43:06;103262.22;;;-2.04;81.83
63090;BME280;49174;43.198;27.824;2023-02-13T20:45:31;103259.84;;;-2.12;81.77
63090;BME280;49174;43.198;27.824;2023-02-13T20:47:57;103240.31;;;-2.08;82.34
63090;BME280;49174;43.198;27.824;2023-02-13T20:50:22;103239.28;;;-2.04;82.45
63090;BME280;49174;43.198;27.824;2023-02-13T20:52:48;103239.25;;;-2.02;83.58
63090;BME280;49174;43.198;27.824;2023-02-13T20:55:14;103231.28;;;-2.00;84.03
63090;BME280;49174;43.198;27.824;2023-02-13T20:57:39;103230.75;;;-1.87;83.43
63090;BME280;49174;43.198;27.824;2023-02-13T21:00:06;103231.44;;;-1.82;82.01
63090;BME280;49174;43.198;27.824;2023-02-13T21:02:33;103229.19;;;-1.92;81.55
63090;BME280;49174;43.198;27.824;2023-02-13T21:04:59;103233.84;;;-1.99;81.38
63090;BME280;49174;43.198;27.824;2023-02-13T21:07:24;103241.06;;;-2.04;80.15
63090;BME280;49174;43.198;27.824;2023-02-13T21:09:50;103237.03;;;-2.14;79.92
63090;BME280;49174;43.198;27.824;2023-02-13T21:12:15;103241.72;;;-2.22;80.29
63090;BME280;49174;43.198;27.824;2023-02-13T21:14:41;103234.91;;;-2.30;80.67
63090;BME280;49174;43.198;27.824;2023-02-13T21:17:07;103237.66;;;-2.33;81.71
63090;BME280;49174;43.198;27.824;2023-02-13T21:19:33;103236.81;;;-2.33;81.74
63090;BME280;49174;43.198;27.824;2023-02-13T21:21:59;103235.84;;;-2.31;81.76
63090;BME280;49174;43.198;27.824;2023-02-13T21:24:38;103222.41;;;-2.25;81.42
63090;BME280;49174;43.198;27.824;2023-02-13T21:27:04;103218.94;;;-2.27;81.34
63090;BME280;49174;43.198;27.824;2023-02-13T21:29:30;103226.97;;;-2.30;81.47
63090;BME280;49174;43.198;27.824;2023-02-13T21:31:55;103219.03;;;-2.30;81.53
63090;BME280;49174;43.198;27.824;2023-02-13T21:34:21;103228.97;;;-2.36;81.30
63090;BME280;49174;43.198;27.824;2023-02-13T21:39:28;103210.34;;;-2.60;82.57
63090;BME280;49174;43.198;27.824;2023-02-13T21:41:54;103214.88;;;-2.63;83.61
63090;BME280;49174;43.198;27.824;2023-02-13T21:44:20;103218.53;;;-2.67;83.85
63090;BME280;49174;43.198;27.824;2023-02-13T21:46:45;103217.63;;;-2.66;83.77
63090;BME280;49174;43.198;27.824;2023-02-13T21:49:15;103220.41;;;-2.71;83.66
63090;BME280;49174;43.198;27.824;2023-02-13T21:51:41;103216.78;;;-2.67;85.25
63090;BME280;49174;43.198;27.824;2023-02-13T21:54:09;103218.97;;;-2.53;85.37
63090;BME280;49174;43.198;27.824;2023-02-13T21:56:37;103220.25;;;-2.40;85.18
63090;BME280;49174;43.198;27.824;2023-02-13T21:59:04;103212.44;;;-2.43;84.61
63090;BME280;49174;43.198;27.824;2023-02-13T22:01:33;103212.31;;;-2.40;82.95
63090;BME280;49174;43.198;27.824;2023-02-13T22:04:01;103210.81;;;-2.47;82.36
63090;BME280;49174;43.198;27.824;2023-02-13T22:06:30;103219.06;;;-2.56;83.30
63090;BME280;49174;43.198;27.824;2023-02-13T22:08:58;103221.88;;;-2.62;83.11
63090;BME280;49174;43.198;27.824;2023-02-13T22:11:25;103222.72;;;-2.60;83.92
63090;BME280;49174;43.198;27.824;2023-02-13T22:13:58;103221.00;;;-2.61;84.04
63090;BME280;49174;43.198;27.824;2023-02-13T22:16:32;103219.22;;;-2.61;84.50
63090;BME280;49174;43.198;27.824;2023-02-13T22:18:59;103212.28;;;-2.65;84.70
63090;BME280;49174;43.198;27.824;2023-02-13T22:21:27;103218.53;;;-2.67;84.77
63090;BME280;49174;43.198;27.824;2023-02-13T22:23:54;103216.06;;;-2.72;85.40
63090;BME280;49174;43.198;27.824;2023-02-13T22:26:26;103216.72;;;-2.65;86.08
63090;BME280;49174;43.198;27.824;2023-02-13T22:28:52;103207.69;;;-2.58;85.49
63090;BME280;49174;43.198;27.824;2023-02-13T22:31:19;103211.38;;;-2.64;85.07
